sensor_id;sensor_type;location;lat;lon;timestamp;P1;durP1;ratioP1;P2;durP2;ratioP2
78871;SDS011;68247;43.514;1.502;2023-08-06T00:01:12;6.60;;;2.80;;
78871;SDS011;68247;43.514;1.502;2023-08-06T00:03:37;8.67;;;2.80;;
78871;SDS011;68247;43.514;1.502;2023-08-06T00:06:04;4.10;;;2.20;;
78871;SDS011;68247;43.514;1.502;2023-08-06T00:08:30;6.83;;;2.93;;
78871;SDS011;68247;43.514;1.502;2023-08-06T00:10:55;6.28;;;2.85;;
78871;SDS011;68247;43.514;1.502;2023-08-06T00:13:21;5.17;;;2.70;;
78871;SDS011;68247;43.514;1.502;2023-08-06T00:15:46;5.73;;;2.93;;
78871;SDS011;68247;43.514;1.502;2023-08-06T00:18:12;6.23;;;2.80;;
78871;SDS011;68247;43.514;1.502;2023-08-06T00:20:40;8.02;;;3.10;;
78871;SDS011;68247;43.514;1.502;2023-08-06T00:23:06;6.57;;;2.70;;
78871;SDS011;68247;43.514;1.502;2023-08-06T00:25:32;6.32;;;3.13;;
78871;SDS011;68247;43.514;1.502;2023-08-06T00:27:57;6.50;;;3.10;;
78871;SDS011;68247;43.514;1.502;2023-08-06T00:30:23;6.35;;;2.80;;
78871;SDS011;68247;43.514;1.502;2023-08-06T00:32:48;9.07;;;2.90;;
78871;SDS011;68247;43.514;1.502;2023-08-06T00:35:14;6.50;;;3.00;;
78871;SDS011;68247;43.514;1.502;2023-08-06T00:37:39;6.73;;;2.73;;
78871;SDS011;68247;43.514;1.502;2023-08-06T00:40:06;9.00;;;3.05;;
78871;SDS011;68247;43.514;1.502;2023-08-06T00:42:32;8.18;;;3.28;;
78871;SDS011;68247;43.514;1.502;2023-08-06T00:44:57;5.97;;;2.93;;
78871;SDS011;68247;43.514;1.502;2023-08-06T00:47:23;9.40;;;3.27;;
78871;SDS011;68247;43.514;1.502;2023-08-06T00:49:48;7.97;;;2.77;;
78871;SDS011;68247;43.514;1.502;2023-08-06T00:52:14;9.23;;;3.17;;
78871;SDS011;68247;43.514;1.502;2023-08-06T00:54:39;8.73;;;3.40;;
78871;SDS011;68247;43.514;1.502;2023-08-06T00:57:05;8.67;;;3.17;;
78871;SDS011;68247;43.514;1.502;2023-08-06T00:59:33;7.53;;;2.80;;
78871;SDS011;68247;43.514;1.502;2023-08-06T01:01:59;8.00;;;3.10;;
78871;SDS011;68247;43.514;1.502;2023-08-06T01:04:24;7.57;;;3.10;;
78871;SDS011;68247;43.514;1.502;2023-08-06T01:09:45;7.20;;;2.72;;
78871;SDS011;68247;43.514;1.502;2023-08-06T01:12:28;7.85;;;2.85;;
78871;SDS011;68247;43.514;1.502;2023-08-06T01:17:21;8.37;;;3.03;;
78871;SDS011;68247;43.514;1.502;2023-08-06T01:19:48;11.20;;;2.40;;
78871;SDS011;68247;43.514;1.502;2023-08-06T01:22:14;8.37;;;2.80;;
78871;SDS011;68247;43.514;1.502;2023-08-06T01:24:40;9.33;;;3.00;;
78871;SDS011;68247;43.514;1.502;2023-08-06T01:27:11;9.57;;;2.78;;
78871;SDS011;68247;43.514;1.502;2023-08-06T01:29:43;7.85;;;2.50;;
78871;SDS011;68247;43.514;1.502;2023-08-06T01:32:10;11.65;;;2.67;;
78871;SDS011;68247;43.514;1.502;2023-08-06T01:34:37;9.23;;;2.30;;
78871;SDS011;68247;43.514;1.502;2023-08-06T01:37:04;9.63;;;2.42;;
78871;SDS011;68247;43.514;1.502;2023-08-06T01:39:31;7.78;;;2.40;;
78871;SDS011;68247;43.514;1.502;2023-08-06T01:41:59;7.65;;;2.70;;
78871;SDS011;68247;43.514;1.502;2023-08-06T01:44:24;8.93;;;2.83;;
78871;SDS011;68247;43.514;1.502;2023-08-06T01:46:50;11.57;;;2.10;;
78871;SDS011;68247;43.514;1.502;2023-08-06T01:49:15;7.83;;;2.70;;
78871;SDS011;68247;43.514;1.502;2023-08-06T01:51:40;8.10;;;1.92;;
78871;SDS011;68247;43.514;1.502;2023-08-06T01:54:06;12.00;;;1.93;;
78871;SDS011;68247;43.514;1.502;2023-08-06T01:56:31;7.97;;;2.37;;
78871;SDS011;68247;43.514;1.502;2023-08-06T01:58:57;8.10;;;2.47;;
78871;SDS011;68247;43.514;1.502;2023-08-06T02:01:22;7.18;;;1.95;;
78871;SDS011;68247;43.514;1.502;2023-08-06T02:03:48;11.10;;;3.30;;
78871;SDS011;68247;43.514;1.502;2023-08-06T02:06:13;8.67;;;2.50;;
78871;SDS011;68247;43.514;1.502;2023-08-06T02:08:39;11.27;;;2.40;;
78871;SDS011;68247;43.514;1.502;2023-08-06T02:11:04;10.82;;;2.50;;
78871;SDS011;68247;43.514;1.502;2023-08-06T02:13:30;12.10;;;3.30;;
78871;SDS011;68247;43.514;1.502;2023-08-06T02:15:55;10.30;;;2.40;;
78871;SDS011;68247;43.514;1.502;2023-08-06T02:18:21;12.87;;;2.93;;
78871;SDS011;68247;43.514;1.502;2023-08-06T02:20:58;11.23;;;2.43;;
78871;SDS011;68247;43.514;1.502;2023-08-06T02:23:24;9.20;;;2.58;;
78871;SDS011;68247;43.514;1.502;2023-08-06T02:26:00;9.80;;;2.50;;
78871;SDS011;68247;43.514;1.502;2023-08-06T02:28:29;10.00;;;2.57;;
78871;SDS011;68247;43.514;1.502;2023-08-06T02:30:55;9.63;;;2.25;;
78871;SDS011;68247;43.514;1.502;2023-08-06T02:33:21;10.60;;;2.30;;
78871;SDS011;68247;43.514;1.502;2023-08-06T02:35:46;12.25;;;3.17;;
78871;SDS011;68247;43.514;1.502;2023-08-06T02:38:11;9.47;;;2.37;;
78871;SDS011;68247;43.514;1.502;2023-08-06T02:40:42;12.20;;;2.40;;
78871;SDS011;68247;43.514;1.502;2023-08-06T02:43:09;9.02;;;2.60;;
78871;SDS011;68247;43.514;1.502;2023-08-06T02:45:34;10.40;;;2.07;;
78871;SDS011;68247;43.514;1.502;2023-08-06T02:48:00;10.73;;;1.93;;
78871;SDS011;68247;43.514;1.502;2023-08-06T02:50:25;9.43;;;1.80;;
78871;SDS011;68247;43.514;1.502;2023-08-06T02:52:50;13.18;;;2.10;;
78871;SDS011;68247;43.514;1.502;2023-08-06T02:55:16;14.50;;;2.40;;
78871;SDS011;68247;43.514;1.502;2023-08-06T02:57:41;10.93;;;2.50;;
78871;SDS011;68247;43.514;1.502;2023-08-06T03:00:07;10.13;;;2.20;;
78871;SDS011;68247;43.514;1.502;2023-08-06T03:02:32;8.63;;;2.20;;
78871;SDS011;68247;43.514;1.502;2023-08-06T03:04:58;8.73;;;2.23;;
78871;SDS011;68247;43.514;1.502;2023-08-06T03:07:24;8.40;;;1.85;;
78871;SDS011;68247;43.514;1.502;2023-08-06T03:09:49;10.30;;;1.97;;
78871;SDS011;68247;43.514;1.502;2023-08-06T03:12:14;12.60;;;2.03;;
78871;SDS011;68247;43.514;1.502;2023-08-06T03:14:40;13.57;;;2.37;;
78871;SDS011;68247;43.514;1.502;2023-08-06T03:17:06;11.38;;;2.33;;
78871;SDS011;68247;43.514;1.502;2023-08-06T03:19:31;14.80;;;2.80;;
78871;SDS011;68247;43.514;1.502;2023-08-06T03:21:56;11.23;;;2.27;;
78871;SDS011;68247;43.514;1.502;2023-08-06T03:24:22;10.80;;;2.10;;
78871;SDS011;68247;43.514;1.502;2023-08-06T03:26:47;10.93;;;2.20;;
78871;SDS011;68247;43.514;1.502;2023-08-06T03:29:12;11.50;;;2.30;;
78871;SDS011;68247;43.514;1.502;2023-08-06T03:31:38;10.80;;;2.27;;
78871;SDS011;68247;43.514;1.502;2023-08-06T03:34:03;8.47;;;2.13;;
78871;SDS011;68247;43.514;1.502;2023-08-06T03:36:29;10.10;;;1.90;;
78871;SDS011;68247;43.514;1.502;2023-08-06T03:38:54;11.27;;;2.20;;
78871;SDS011;68247;43.514;1.502;2023-08-06T03:41:21;12.63;;;2.63;;
78871;SDS011;68247;43.514;1.502;2023-08-06T03:43:46;14.00;;;2.67;;
78871;SDS011;68247;43.514;1.502;2023-08-06T03:46:12;10.33;;;2.50;;
78871;SDS011;68247;43.514;1.502;2023-08-06T03:48:37;11.20;;;2.90;;
78871;SDS011;68247;43.514;1.502;2023-08-06T03:51:03;11.75;;;2.55;;
78871;SDS011;68247;43.514;1.502;2023-08-06T03:53:28;12.33;;;2.50;;
78871;SDS011;68247;43.514;1.502;2023-08-06T03:55:54;9.47;;;2.13;;
78871;SDS011;68247;43.514;1.502;2023-08-06T03:58:20;8.85;;;2.00;;
78871;SDS011;68247;43.514;1.502;2023-08-06T04:00:46;17.30;;;2.80;;
78871;SDS011;68247;43.514;1.502;2023-08-06T04:03:11;13.80;;;2.70;;
78871;SDS011;68247;43.514;1.502;2023-08-06T04:05:37;9.95;;;2.50;;
78871;SDS011;68247;43.514;1.502;2023-08-06T04:08:02;12.03;;;2.10;;
78871;SDS011;68247;43.514;1.502;2023-08-06T04:10:27;13.60;;;2.00;;
78871;SDS011;68247;43.514;1.502;2023-08-06T04:12:53;16.13;;;3.03;;
78871;SDS011;68247;43.514;1.502;2023-08-06T04:15:18;7.60;;;2.00;;
78871;SDS011;68247;43.514;1.502;2023-08-06T04:17:44;11.87;;;2.63;;
78871;SDS011;68247;43.514;1.502;2023-08-06T04:20:09;14.27;;;2.53;;
78871;SDS011;68247;43.514;1.502;2023-08-06T04:22:35;8.37;;;2.27;;
78871;SDS011;68247;43.514;1.502;2023-08-06T04:25:00;9.27;;;2.22;;
78871;SDS011;68247;43.514;1.502;2023-08-06T04:27:26;12.37;;;2.27;;
78871;SDS011;68247;43.514;1.502;2023-08-06T04:29:51;11.20;;;2.00;;
78871;SDS011;68247;43.514;1.502;2023-08-06T04:32:16;11.37;;;2.40;;
78871;SDS011;68247;43.514;1.502;2023-08-06T04:34:44;10.80;;;2.63;;
78871;SDS011;68247;43.514;1.502;2023-08-06T04:37:09;9.10;;;2.20;;
78871;SDS011;68247;43.514;1.502;2023-08-06T04:39:35;9.53;;;1.90;;
78871;SDS011;68247;43.514;1.502;2023-08-06T04:42:00;9.35;;;2.40;;
78871;SDS011;68247;43.514;1.502;2023-08-06T04:44:25;8.90;;;2.03;;
78871;SDS011;68247;43.514;1.502;2023-08-06T04:46:51;11.83;;;2.53;;
78871;SDS011;68247;43.514;1.502;2023-08-06T04:49:17;8.38;;;2.65;;
78871;SDS011;68247;43.514;1.502;2023-08-06T04:51:43;8.90;;;2.40;;
78871;SDS011;68247;43.514;1.502;2023-08-06T04:54:09;11.10;;;2.47;;
78871;SDS011;68247;43.514;1.502;2023-08-06T04:56:34;9.87;;;2.30;;
78871;SDS011;68247;43.514;1.502;2023-08-06T04:59:00;11.82;;;2.10;;
78871;SDS011;68247;43.514;1.502;2023-08-06T05:01:25;11.30;;;2.53;;
78871;SDS011;68247;43.514;1.502;2023-08-06T05:03:51;11.83;;;2.33;;
78871;SDS011;68247;43.514;1.502;2023-08-06T05:06:16;12.50;;;2.20;;
78871;SDS011;68247;43.514;1.502;2023-08-06T05:08:42;13.43;;;2.30;;
78871;SDS011;68247;43.514;1.502;2023-08-06T05:11:07;10.37;;;2.80;;
78871;SDS011;68247;43.514;1.502;2023-08-06T05:13:33;13.43;;;2.20;;
78871;SDS011;68247;43.514;1.502;2023-08-06T05:15:58;16.57;;;2.47;;
78871;SDS011;68247;43.514;1.502;2023-08-06T05:18:23;13.45;;;2.83;;
78871;SDS011;68247;43.514;1.502;2023-08-06T05:20:49;11.23;;;2.43;;
78871;SDS011;68247;43.514;1.502;2023-08-06T05:23:14;13.13;;;2.60;;
78871;SDS011;68247;43.514;1.502;2023-08-06T05:25:40;11.93;;;2.40;;
78871;SDS011;68247;43.514;1.502;2023-08-06T05:28:05;13.20;;;2.80;;
78871;SDS011;68247;43.514;1.502;2023-08-06T05:30:31;12.20;;;2.50;;
78871;SDS011;68247;43.514;1.502;2023-08-06T05:32:57;12.20;;;3.00;;
78871;SDS011;68247;43.514;1.502;2023-08-06T05:35:22;9.90;;;2.65;;
78871;SDS011;68247;43.514;1.502;2023-08-06T05:37:48;10.00;;;2.30;;
78871;SDS011;68247;43.514;1.502;2023-08-06T05:40:14;14.15;;;2.80;;
78871;SDS011;68247;43.514;1.502;2023-08-06T05:42:40;11.10;;;2.40;;
78871;SDS011;68247;43.514;1.502;2023-08-06T05:45:05;9.55;;;2.28;;
78871;SDS011;68247;43.514;1.502;2023-08-06T05:47:31;14.63;;;2.88;;
78871;SDS011;68247;43.514;1.502;2023-08-06T05:49:57;11.50;;;2.37;;
78871;SDS011;68247;43.514;1.502;2023-08-06T05:52:22;16.37;;;2.57;;
78871;SDS011;68247;43.514;1.502;2023-08-06T05:54:48;9.82;;;2.50;;
78871;SDS011;68247;43.514;1.502;2023-08-06T05:57:13;13.77;;;3.10;;
78871;SDS011;68247;43.514;1.502;2023-08-06T05:59:40;10.97;;;2.40;;
78871;SDS011;68247;43.514;1.502;2023-08-06T06:02:05;15.10;;;3.03;;
78871;SDS011;68247;43.514;1.502;2023-08-06T06:04:31;11.50;;;2.17;;
78871;SDS011;68247;43.514;1.502;2023-08-06T06:06:56;12.97;;;2.53;;
78871;SDS011;68247;43.514;1.502;2023-08-06T06:09:22;13.30;;;2.40;;
78871;SDS011;68247;43.514;1.502;2023-08-06T06:11:47;11.93;;;2.40;;
78871;SDS011;68247;43.514;1.502;2023-08-06T06:14:14;14.95;;;2.65;;
78871;SDS011;68247;43.514;1.502;2023-08-06T06:16:40;13.57;;;3.17;;
78871;SDS011;68247;43.514;1.502;2023-08-06T06:19:05;11.57;;;2.50;;
78871;SDS011;68247;43.514;1.502;2023-08-06T06:21:30;15.23;;;2.50;;
78871;SDS011;68247;43.514;1.502;2023-08-06T06:23:56;10.98;;;2.33;;
78871;SDS011;68247;43.514;1.502;2023-08-06T06:26:21;13.20;;;2.83;;
78871;SDS011;68247;43.514;1.502;2023-08-06T06:28:47;11.83;;;2.23;;
78871;SDS011;68247;43.514;1.502;2023-08-06T06:31:12;12.80;;;2.47;;
78871;SDS011;68247;43.514;1.502;2023-08-06T06:33:38;9.27;;;2.22;;
78871;SDS011;68247;43.514;1.502;2023-08-06T06:36:03;10.90;;;2.30;;
78871;SDS011;68247;43.514;1.502;2023-08-06T06:38:29;12.93;;;2.80;;
78871;SDS011;68247;43.514;1.502;2023-08-06T06:40:55;11.32;;;2.55;;
78871;SDS011;68247;43.514;1.502;2023-08-06T06:43:21;7.83;;;2.10;;
78871;SDS011;68247;43.514;1.502;2023-08-06T06:45:46;14.18;;;2.63;;
78871;SDS011;68247;43.514;1.502;2023-08-06T06:48:12;11.40;;;2.63;;
78871;SDS011;68247;43.514;1.502;2023-08-06T06:50:37;14.40;;;2.90;;
78871;SDS011;68247;43.514;1.502;2023-08-06T06:53:04;13.85;;;2.53;;
78871;SDS011;68247;43.514;1.502;2023-08-06T06:55:29;12.50;;;2.15;;
78871;SDS011;68247;43.514;1.502;2023-08-06T06:57:55;14.07;;;2.20;;
78871;SDS011;68247;43.514;1.502;2023-08-06T07:00:20;8.47;;;2.00;;
78871;SDS011;68247;43.514;1.502;2023-08-06T07:02:46;18.60;;;3.20;;
78871;SDS011;68247;43.514;1.502;2023-08-06T07:05:11;10.55;;;2.38;;
78871;SDS011;68247;43.514;1.502;2023-08-06T07:07:36;8.13;;;1.70;;
78871;SDS011;68247;43.514;1.502;2023-08-06T07:10:02;10.13;;;2.00;;
78871;SDS011;68247;43.514;1.502;2023-08-06T07:12:29;10.68;;;2.13;;
78871;SDS011;68247;43.514;1.502;2023-08-06T07:14:54;10.43;;;2.17;;
78871;SDS011;68247;43.514;1.502;2023-08-06T07:17:20;11.18;;;2.28;;
78871;SDS011;68247;43.514;1.502;2023-08-06T07:19:45;13.30;;;2.30;;
78871;SDS011;68247;43.514;1.502;2023-08-06T07:22:11;10.70;;;2.13;;
78871;SDS011;68247;43.514;1.502;2023-08-06T07:24:36;8.57;;;2.00;;
78871;SDS011;68247;43.514;1.502;2023-08-06T07:27:02;10.13;;;2.03;;
78871;SDS011;68247;43.514;1.502;2023-08-06T07:29:28;11.75;;;2.28;;
78871;SDS011;68247;43.514;1.502;2023-08-06T07:31:53;9.37;;;2.33;;
78871;SDS011;68247;43.514;1.502;2023-08-06T07:34:20;10.13;;;2.28;;
78871;SDS011;68247;43.514;1.502;2023-08-06T07:36:46;10.40;;;2.00;;
78871;SDS011;68247;43.514;1.502;2023-08-06T07:39:12;10.10;;;2.03;;
78871;SDS011;68247;43.514;1.502;2023-08-06T07:41:37;9.53;;;2.33;;
78871;SDS011;68247;43.514;1.502;2023-08-06T07:44:03;10.40;;;2.22;;
78871;SDS011;68247;43.514;1.502;2023-08-06T07:46:29;7.80;;;2.00;;
78871;SDS011;68247;43.514;1.502;2023-08-06T07:48:54;11.55;;;2.10;;
78871;SDS011;68247;43.514;1.502;2023-08-06T07:51:19;7.80;;;2.20;;
78871;SDS011;68247;43.514;1.502;2023-08-06T07:53:45;10.30;;;2.20;;
78871;SDS011;68247;43.514;1.502;2023-08-06T07:56:10;10.37;;;2.27;;
78871;SDS011;68247;43.514;1.502;2023-08-06T07:58:36;11.67;;;2.20;;
78871;SDS011;68247;43.514;1.502;2023-08-06T08:01:01;12.80;;;2.40;;
78871;SDS011;68247;43.514;1.502;2023-08-06T08:03:26;12.67;;;2.20;;
78871;SDS011;68247;43.514;1.502;2023-08-06T08:05:54;10.77;;;1.70;;
78871;SDS011;68247;43.514;1.502;2023-08-06T08:08:22;8.50;;;1.73;;
78871;SDS011;68247;43.514;1.502;2023-08-06T08:10:48;9.43;;;2.07;;
78871;SDS011;68247;43.514;1.502;2023-08-06T08:13:13;10.88;;;2.28;;
78871;SDS011;68247;43.514;1.502;2023-08-06T08:15:38;7.87;;;2.07;;
78871;SDS011;68247;43.514;1.502;2023-08-06T08:18:04;9.53;;;2.33;;
78871;SDS011;68247;43.514;1.502;2023-08-06T08:20:29;9.27;;;2.27;;
78871;SDS011;68247;43.514;1.502;2023-08-06T08:23:00;8.43;;;2.00;;
78871;SDS011;68247;43.514;1.502;2023-08-06T08:25:26;14.30;;;2.30;;
78871;SDS011;68247;43.514;1.502;2023-08-06T08:27:53;8.07;;;2.00;;
78871;SDS011;68247;43.514;1.502;2023-08-06T08:30:19;10.70;;;2.30;;
78871;SDS011;68247;43.514;1.502;2023-08-06T08:32:44;9.53;;;2.73;;
78871;SDS011;68247;43.514;1.502;2023-08-06T08:35:10;11.30;;;2.33;;
78871;SDS011;68247;43.514;1.502;2023-08-06T08:37:37;8.75;;;1.80;;
78871;SDS011;68247;43.514;1.502;2023-08-06T08:40:03;6.82;;;1.73;;
78871;SDS011;68247;43.514;1.502;2023-08-06T08:42:30;8.77;;;1.80;;
78871;SDS011;68247;43.514;1.502;2023-08-06T08:44:55;9.52;;;2.38;;
78871;SDS011;68247;43.514;1.502;2023-08-06T08:47:21;12.63;;;2.50;;
78871;SDS011;68247;43.514;1.502;2023-08-06T08:49:47;9.98;;;1.58;;
78871;SDS011;68247;43.514;1.502;2023-08-06T08:52:13;9.68;;;2.10;;
78871;SDS011;68247;43.514;1.502;2023-08-06T08:54:40;7.20;;;1.73;;
78871;SDS011;68247;43.514;1.502;2023-08-06T08:57:06;10.13;;;2.10;;
78871;SDS011;68247;43.514;1.502;2023-08-06T08:59:33;7.50;;;2.07;;
78871;SDS011;68247;43.514;1.502;2023-08-06T09:02:00;9.20;;;2.00;;
78871;SDS011;68247;43.514;1.502;2023-08-06T09:04:26;7.97;;;1.80;;
78871;SDS011;68247;43.514;1.502;2023-08-06T09:06:53;9.63;;;2.47;;
78871;SDS011;68247;43.514;1.502;2023-08-06T09:09:26;7.38;;;1.95;;
78871;SDS011;68247;43.514;1.502;2023-08-06T09:11:55;5.43;;;1.13;;
78871;SDS011;68247;43.514;1.502;2023-08-06T09:14:27;11.02;;;2.00;;
78871;SDS011;68247;43.514;1.502;2023-08-06T09:16:53;9.00;;;1.83;;
78871;SDS011;68247;43.514;1.502;2023-08-06T09:19:20;8.70;;;2.05;;
78871;SDS011;68247;43.514;1.502;2023-08-06T09:21:46;7.53;;;2.13;;
78871;SDS011;68247;43.514;1.502;2023-08-06T09:24:14;6.70;;;1.60;;
78871;SDS011;68247;43.514;1.502;2023-08-06T09:26:40;6.93;;;1.50;;
78871;SDS011;68247;43.514;1.502;2023-08-06T09:29:06;7.25;;;1.70;;
78871;SDS011;68247;43.514;1.502;2023-08-06T09:31:33;8.98;;;1.90;;
78871;SDS011;68247;43.514;1.502;2023-08-06T09:34:06;8.82;;;1.70;;
78871;SDS011;68247;43.514;1.502;2023-08-06T09:36:39;7.15;;;1.55;;
78871;SDS011;68247;43.514;1.502;2023-08-06T09:39:12;9.37;;;1.80;;
78871;SDS011;68247;43.514;1.502;2023-08-06T09:41:41;9.40;;;1.63;;
78871;SDS011;68247;43.514;1.502;2023-08-06T09:44:19;7.40;;;1.70;;
78871;SDS011;68247;43.514;1.502;2023-08-06T09:46:49;7.70;;;2.10;;
78871;SDS011;68247;43.514;1.502;2023-08-06T09:49:17;7.93;;;2.30;;
78871;SDS011;68247;43.514;1.502;2023-08-06T09:51:43;8.37;;;1.83;;
78871;SDS011;68247;43.514;1.502;2023-08-06T09:54:10;8.00;;;1.80;;
78871;SDS011;68247;43.514;1.502;2023-08-06T09:56:37;8.10;;;1.63;;
78871;SDS011;68247;43.514;1.502;2023-08-06T09:59:06;9.32;;;1.90;;
78871;SDS011;68247;43.514;1.502;2023-08-06T10:01:35;9.27;;;2.13;;
78871;SDS011;68247;43.514;1.502;2023-08-06T10:04:01;15.80;;;6.30;;
78871;SDS011;68247;43.514;1.502;2023-08-06T10:06:31;12.43;;;6.40;;
78871;SDS011;68247;43.514;1.502;2023-08-06T10:08:58;9.27;;;2.20;;
78871;SDS011;68247;43.514;1.502;2023-08-06T10:11:24;8.17;;;2.10;;
78871;SDS011;68247;43.514;1.502;2023-08-06T10:13:52;7.05;;;1.98;;
78871;SDS011;68247;43.514;1.502;2023-08-06T10:16:22;7.90;;;2.08;;
78871;SDS011;68247;43.514;1.502;2023-08-06T10:18:48;10.30;;;1.95;;
78871;SDS011;68247;43.514;1.502;2023-08-06T10:21:14;6.90;;;2.10;;
78871;SDS011;68247;43.514;1.502;2023-08-06T10:23:41;8.38;;;2.00;;
78871;SDS011;68247;43.514;1.502;2023-08-06T10:26:06;8.00;;;1.60;;
78871;SDS011;68247;43.514;1.502;2023-08-06T10:28:38;6.00;;;1.70;;
78871;SDS011;68247;43.514;1.502;2023-08-06T10:31:05;7.90;;;1.80;;
78871;SDS011;68247;43.514;1.502;2023-08-06T10:33:43;8.45;;;1.88;;
78871;SDS011;68247;43.514;1.502;2023-08-06T10:36:10;6.32;;;1.63;;
78871;SDS011;68247;43.514;1.502;2023-08-06T10:38:46;6.80;;;1.80;;
78871;SDS011;68247;43.514;1.502;2023-08-06T10:41:31;5.57;;;1.92;;
78871;SDS011;68247;43.514;1.502;2023-08-06T10:44:06;6.57;;;1.80;;
78871;SDS011;68247;43.514;1.502;2023-08-06T10:46:36;5.82;;;1.98;;
78871;SDS011;68247;43.514;1.502;2023-08-06T10:49:02;7.82;;;1.90;;
78871;SDS011;68247;43.514;1.502;2023-08-06T10:51:28;8.37;;;2.17;;
78871;SDS011;68247;43.514;1.502;2023-08-06T10:53:53;9.52;;;2.03;;
78871;SDS011;68247;43.514;1.502;2023-08-06T10:56:23;6.33;;;2.00;;
78871;SDS011;68247;43.514;1.502;2023-08-06T10:58:55;7.05;;;1.80;;
78871;SDS011;68247;43.514;1.502;2023-08-06T11:01:23;9.13;;;1.90;;
78871;SDS011;68247;43.514;1.502;2023-08-06T11:03:49;7.72;;;1.80;;
78871;SDS011;68247;43.514;1.502;2023-08-06T11:06:22;6.80;;;2.10;;
78871;SDS011;68247;43.514;1.502;2023-08-06T11:08:49;7.72;;;1.98;;
78871;SDS011;68247;43.514;1.502;2023-08-06T11:11:16;6.90;;;2.33;;
78871;SDS011;68247;43.514;1.502;2023-08-06T11:13:42;6.53;;;2.00;;
78871;SDS011;68247;43.514;1.502;2023-08-06T11:16:09;8.18;;;2.50;;
78871;SDS011;68247;43.514;1.502;2023-08-06T11:18:35;6.70;;;2.20;;
78871;SDS011;68247;43.514;1.502;2023-08-06T11:21:01;9.50;;;2.22;;
78871;SDS011;68247;43.514;1.502;2023-08-06T11:23:27;6.05;;;1.95;;
78871;SDS011;68247;43.514;1.502;2023-08-06T11:25:54;7.63;;;1.60;;
78871;SDS011;68247;43.514;1.502;2023-08-06T11:28:20;8.05;;;1.60;;
78871;SDS011;68247;43.514;1.502;2023-08-06T11:30:49;8.43;;;1.90;;
78871;SDS011;68247;43.514;1.502;2023-08-06T11:33:19;7.95;;;2.15;;
78871;SDS011;68247;43.514;1.502;2023-08-06T11:35:46;6.82;;;1.77;;
78871;SDS011;68247;43.514;1.502;2023-08-06T11:38:13;8.27;;;2.00;;
78871;SDS011;68247;43.514;1.502;2023-08-06T11:40:38;6.28;;;1.63;;
78871;SDS011;68247;43.514;1.502;2023-08-06T11:43:05;5.87;;;1.87;;
78871;SDS011;68247;43.514;1.502;2023-08-06T11:45:30;6.77;;;1.63;;
78871;SDS011;68247;43.514;1.502;2023-08-06T11:47:56;8.88;;;1.90;;
78871;SDS011;68247;43.514;1.502;2023-08-06T11:50:24;6.13;;;1.53;;
78871;SDS011;68247;43.514;1.502;2023-08-06T11:52:57;7.85;;;1.77;;
78871;SDS011;68247;43.514;1.502;2023-08-06T11:55:24;5.80;;;1.98;;
78871;SDS011;68247;43.514;1.502;2023-08-06T11:57:50;4.68;;;1.45;;
78871;SDS011;68247;43.514;1.502;2023-08-06T12:00:16;4.83;;;1.83;;
78871;SDS011;68247;43.514;1.502;2023-08-06T12:02:47;6.55;;;1.92;;
78871;SDS011;68247;43.514;1.502;2023-08-06T12:07:46;5.50;;;1.60;;
78871;SDS011;68247;43.514;1.502;2023-08-06T12:10:13;5.97;;;1.93;;
78871;SDS011;68247;43.514;1.502;2023-08-06T12:12:39;8.02;;;2.13;;
78871;SDS011;68247;43.514;1.502;2023-08-06T12:15:05;6.00;;;1.77;;
78871;SDS011;68247;43.514;1.502;2023-08-06T12:17:31;7.10;;;2.23;;
78871;SDS011;68247;43.514;1.502;2023-08-06T12:19:57;8.13;;;2.20;;
78871;SDS011;68247;43.514;1.502;2023-08-06T12:22:22;6.67;;;1.70;;
78871;SDS011;68247;43.514;1.502;2023-08-06T12:24:48;9.02;;;2.85;;
78871;SDS011;68247;43.514;1.502;2023-08-06T12:27:13;5.07;;;1.77;;
78871;SDS011;68247;43.514;1.502;2023-08-06T12:29:46;7.40;;;1.90;;
78871;SDS011;68247;43.514;1.502;2023-08-06T12:32:13;6.63;;;2.10;;
78871;SDS011;68247;43.514;1.502;2023-08-06T12:34:39;8.00;;;1.98;;
78871;SDS011;68247;43.514;1.502;2023-08-06T12:37:05;7.45;;;1.90;;
78871;SDS011;68247;43.514;1.502;2023-08-06T12:39:32;6.15;;;1.98;;
78871;SDS011;68247;43.514;1.502;2023-08-06T12:42:01;6.00;;;1.97;;
78871;SDS011;68247;43.514;1.502;2023-08-06T12:44:27;6.22;;;1.70;;
78871;SDS011;68247;43.514;1.502;2023-08-06T12:46:53;6.15;;;1.83;;
78871;SDS011;68247;43.514;1.502;2023-08-06T12:49:19;6.00;;;1.60;;
78871;SDS011;68247;43.514;1.502;2023-08-06T12:51:50;5.88;;;2.10;;
78871;SDS011;68247;43.514;1.502;2023-08-06T12:54:18;5.53;;;1.65;;
78871;SDS011;68247;43.514;1.502;2023-08-06T12:56:45;6.88;;;2.30;;
78871;SDS011;68247;43.514;1.502;2023-08-06T12:59:11;5.10;;;2.03;;
78871;SDS011;68247;43.514;1.502;2023-08-06T13:01:37;6.68;;;2.15;;
78871;SDS011;68247;43.514;1.502;2023-08-06T13:04:03;5.78;;;1.70;;
78871;SDS011;68247;43.514;1.502;2023-08-06T13:06:29;5.93;;;1.70;;
78871;SDS011;68247;43.514;1.502;2023-08-06T13:08:55;5.45;;;1.63;;
78871;SDS011;68247;43.514;1.502;2023-08-06T13:11:21;6.78;;;2.05;;
78871;SDS011;68247;43.514;1.502;2023-08-06T13:13:47;4.80;;;1.50;;
78871;SDS011;68247;43.514;1.502;2023-08-06T13:16:12;5.73;;;1.77;;
78871;SDS011;68247;43.514;1.502;2023-08-06T13:18:38;6.55;;;2.55;;
78871;SDS011;68247;43.514;1.502;2023-08-06T13:21:03;3.87;;;1.57;;
78871;SDS011;68247;43.514;1.502;2023-08-06T13:23:28;5.70;;;1.90;;
78871;SDS011;68247;43.514;1.502;2023-08-06T13:25:54;6.63;;;2.13;;
78871;SDS011;68247;43.514;1.502;2023-08-06T13:28:20;5.30;;;1.98;;
78871;SDS011;68247;43.514;1.502;2023-08-06T13:30:46;5.72;;;1.88;;
78871;SDS011;68247;43.514;1.502;2023-08-06T13:33:11;6.30;;;2.03;;
78871;SDS011;68247;43.514;1.502;2023-08-06T13:35:37;6.17;;;2.00;;
78871;SDS011;68247;43.514;1.502;2023-08-06T13:38:03;6.45;;;1.73;;
78871;SDS011;68247;43.514;1.502;2023-08-06T13:40:29;5.40;;;1.80;;
78871;SDS011;68247;43.514;1.502;2023-08-06T13:42:55;7.68;;;2.22;;
78871;SDS011;68247;43.514;1.502;2023-08-06T13:45:21;5.95;;;1.90;;
78871;SDS011;68247;43.514;1.502;2023-08-06T13:47:46;6.47;;;2.93;;
78871;SDS011;68247;43.514;1.502;2023-08-06T13:50:12;6.70;;;2.22;;
78871;SDS011;68247;43.514;1.502;2023-08-06T13:52:38;5.60;;;2.63;;
78871;SDS011;68247;43.514;1.502;2023-08-06T13:55:04;6.20;;;2.77;;
78871;SDS011;68247;43.514;1.502;2023-08-06T13:57:30;4.90;;;2.20;;
78871;SDS011;68247;43.514;1.502;2023-08-06T13:59:55;6.00;;;2.50;;
78871;SDS011;68247;43.514;1.502;2023-08-06T14:02:21;5.68;;;2.38;;
78871;SDS011;68247;43.514;1.502;2023-08-06T14:04:47;6.30;;;2.40;;
78871;SDS011;68247;43.514;1.502;2023-08-06T14:07:13;6.35;;;2.67;;
78871;SDS011;68247;43.514;1.502;2023-08-06T14:09:38;4.93;;;2.10;;
78871;SDS011;68247;43.514;1.502;2023-08-06T14:12:05;5.72;;;2.00;;
78871;SDS011;68247;43.514;1.502;2023-08-06T14:14:31;5.60;;;1.90;;
78871;SDS011;68247;43.514;1.502;2023-08-06T14:16:56;4.63;;;1.65;;
78871;SDS011;68247;43.514;1.502;2023-08-06T14:19:22;6.93;;;2.00;;
78871;SDS011;68247;43.514;1.502;2023-08-06T14:21:47;6.00;;;1.88;;
78871;SDS011;68247;43.514;1.502;2023-08-06T14:24:13;6.13;;;1.87;;
78871;SDS011;68247;43.514;1.502;2023-08-06T14:26:38;6.43;;;1.90;;
78871;SDS011;68247;43.514;1.502;2023-08-06T14:29:04;5.30;;;2.20;;
78871;SDS011;68247;43.514;1.502;2023-08-06T14:31:29;7.00;;;1.80;;
78871;SDS011;68247;43.514;1.502;2023-08-06T14:33:55;5.93;;;1.60;;
78871;SDS011;68247;43.514;1.502;2023-08-06T14:36:20;5.73;;;1.70;;
78871;SDS011;68247;43.514;1.502;2023-08-06T14:38:46;5.83;;;1.80;;
78871;SDS011;68247;43.514;1.502;2023-08-06T14:41:11;6.85;;;2.03;;
78871;SDS011;68247;43.514;1.502;2023-08-06T14:43:37;5.37;;;2.10;;
78871;SDS011;68247;43.514;1.502;2023-08-06T14:46:02;7.93;;;2.37;;